EW5193 Weather Reports


Display with metric or nautical units.
time (UTC)temp
F
wind
direction
speed
MPH
gust
MPH
rain 1hr
in
rain 24hr
in
rain mn
in
humidity
%
barometer
mb
20210923180026 77 229 2.0 8.0 0.00 0.02 0.01 80 1018.6
20210923173051 75 254 1.0 6.0 0.00 0.02 0.01 84 1018.8
20210923171537 75 205 3.0 10.0 0.00 0.02 0.01 82 1019.3
20210923170024 76 115 2.0 10.0 0.00 0.02 0.01 80 1019.1
20210923163052 76 105 3.0 9.0 0.00 0.02 0.01 80 1019.0
20210923161517 76 89 4.0 10.0 0.00 0.02 0.01 80 1018.9
20210923160022 76 243 2.0 8.0 0.00 0.02 0.01 82 1019.0
20210923154510 76 85 4.0 9.0 0.00 0.02 0.01 82 1018.9
20210923153018 75 130 4.0 8.0 0.00 0.02 0.01 83 1019.0
20210923151514 74 118 2.0 7.0 0.00 0.02 0.01 85 1019.1
20210923150003 73 125 2.0 7.0 0.00 0.02 0.01 87 1019.3
20210923144503 74 157 3.0 9.0 0.00 0.02 0.01 86 1019.2
20210923143002 74 94 4.0 9.0 0.00 0.02 0.01 85 1019.3
20210923141622 74 224 2.0 9.0 0.00 0.02 0.01 88 1019.2
20210923140110 73 169 4.0 10.0 0.00 0.02 0.01 88 1019.0
20210923134628 72 143 5.0 11.0 0.00 0.02 0.01 91 1018.9
20210923133120 72 132 2.0 7.0 0.00 0.02 0.01 94 1018.9
20210923131548 70 130 4.0 9.0 0.00 0.02 0.01 96 1019.0
20210923130113 70 148 2.0 8.0 0.00 0.02 0.01 97 1018.9
20210923124743 69 148 2.0 10.0 0.00 0.02 0.01 98 1018.8
20210923123151 68 158 2.0 7.0 0.00 0.02 0.01 98 1018.9
20210923121550 68 174 2.0 9.0 0.00 0.02 0.01 98 1018.8
20210923120143 67 57 1.0 5.0 0.00 0.02 0.01 98 1019.0
20210923114539 67 267 0.0 3.0 0.00 0.02 0.01 98 1019.0
20210923113031 66 131 0.0 3.0 0.00 0.02 0.01 98 1019.0
20210923111555 65 89 1.0 4.0 0.00 0.02 0.01 98 1018.9
20210923110042 65 119 1.0 3.0 0.00 0.02 0.01 98 1019.0
20210923104548 65 114 0.0 1.0 0.00 0.02 0.01 98 1019.0
20210923103034 64 72 0.0 1.0 0.00 0.02 0.01 98 1018.9
20210923101556 64 139 0.0 2.0 0.00 0.02 0.01 98 1018.9
20210923100134 63 326 0.0 2.0 0.00 0.02 0.01 98 1018.9
20210923094529 62 319 0.0 1.0 0.00 0.02 0.01 98 1018.8
20210923093050 62 319 0.0 0.0 0.00 0.02 0.01 98 1018.9
20210923091522 63 319 0.0 1.0 0.00 0.02 0.01 98 1018.9
20210923090021 63 105 0.0 1.0 0.00 0.02 0.01 98 1018.8
20210923084608 63 105 0.0 1.0 0.00 0.02 0.01 98 1018.9
20210923083020 62 105 0.0 1.0 0.00 0.02 0.01 98 1019.0
20210923081520 62 105 0.0 0.0 0.00 0.02 0.01 98 1018.9
20210923080058 62 105 0.0 0.0 0.00 0.02 0.01 98 1019.0
20210923074521 62 105 0.0 0.0 0.00 0.02 0.01 98 1019.0
20210923073034 62 105 0.0 0.0 0.00 0.02 0.01 98 1019.2
20210923071522 63 105 0.0 0.0 0.00 0.02 0.01 98 1019.2
20210923070050 63 105 0.0 0.0 0.00 0.02 0.01 98 1019.2
20210923064518 62 103 0.0 1.0 0.00 0.02 0.01 98 1019.2
20210923063016 62 100 0.0 0.0 0.00 0.02 0.01 97 1019.2
20210923061514 62 100 0.0 1.0 0.01 0.02 0.01 97 1019.4
20210923060019 62 100 0.0 0.0 0.01 0.02 0.01 97 1019.5
20210923054510 63 100 0.0 1.0 0.01 0.02 0.01 97 1019.6
20210923053006 63 100 0.0 0.0 0.01 0.02 0.01 97 1019.7
20210923051517 63 100 0.0 1.0 0.00 0.01 0.00 97 1019.7
20210923050002 63 100 0.0 1.0 0.00 0.01 0.00 97 1019.7
20210923044738 64 100 0.0 0.0 0.00 0.01 0.00 97 1019.8
20210923041609 64 100 0.0 0.0 0.00 0.01 0.00 97 1019.9
20210923040251 64 100 0.0 0.0 0.00 0.01 0.00 97 1019.8
20210923034641 65 100 0.0 0.0 0.00 0.01 0.01 97 1019.8
20210923033120 65 100 0.0 0.0 0.00 0.01 0.01 96 1019.8
20210923031606 65 100 0.0 0.0 0.00 0.01 0.01 96 1019.7
20210923030105 66 100 0.0 1.0 0.00 0.01 0.01 96 1019.8
20210923024613 66 101 0.0 0.0 0.00 0.01 0.01 96 1019.8
20210923023108 66 101 0.0 2.0 0.00 0.01 0.01 96 1019.8
20210923021639 66 154 0.0 1.0 0.00 0.01 0.01 96 1019.8
20210923020056 67 117 0.0 1.0 0.00 0.01 0.01 96 1019.8
20210923014639 67 117 0.0 1.0 0.00 0.01 0.01 95 1019.7
20210923013100 67 117 0.0 1.0 0.00 0.01 0.01 95 1019.7
20210923011654 67 116 0.0 1.0 0.00 0.01 0.01 95 1019.8
20210923010122 68 147 0.0 2.0 0.00 0.01 0.01 94 1019.7
20210923004602 68 207 0.0 3.0 0.00 0.01 0.01 94 1019.6
20210923003101 68 174 0.0 5.0 0.00 0.01 0.01 94 1019.6
20210923001753 68 202 0.0 3.0 0.00 0.01 0.01 94 1019.6
20210923000125 68 184 0.0 1.0 0.00 0.01 0.01 94 1019.4
20210922234636 68 166 0.0 2.0 0.00 0.01 0.01 94 1019.3
20210922233150 68 124 0.0 2.0 0.00 0.01 0.01 93 1019.3
20210922231613 68 80 0.0 2.0 0.00 0.01 0.01 93 1019.2
20210922230122 69 24 0.0 1.0 0.00 0.01 0.01 92 1019.2
20210922224604 70 160 0.0 2.0 0.00 0.01 0.01 91 1019.1
20210922223049 70 145 0.0 4.0 0.00 0.01 0.01 90 1019.0
20210922220148 71 117 0.0 3.0 0.00 0.01 0.01 90 1019.1
20210922214627 72 138 0.0 1.0 0.00 0.01 0.01 89 1019.2
20210922213056 73 231 1.0 4.0 0.00 0.01 0.01 88 1019.2
20210922211550 73 261 1.0 7.0 0.00 0.01 0.01 87 1019.2
20210922210110 73 168 1.0 6.0 0.00 0.01 0.01 88 1019.2
20210922204543 72 221 1.0 4.0 0.00 0.01 0.01 89 1019.3
20210922203058 72 135 1.0 4.0 0.00 0.01 0.01 89 1019.4
20210922201548 72 131 2.0 4.0 0.00 0.01 0.01 88 1019.6
20210922200123 72 164 0.0 4.0 0.00 0.01 0.01 90 1019.6
20210922194539 72 181 1.0 3.0 0.01 0.01 0.01 92 1019.7
20210922193114 71 113 2.0 5.0 0.01 0.01 0.01 92 1020.0
20210922191544 71 92 3.0 5.0 0.01 0.01 0.01 90 1020.1
20210922190031 72 170 2.0 6.0 0.01 0.01 0.01 89 1020.4
20210922184529 73 206 1.0 6.0 0.00 0.00 0.00 85 1020.6
20210922183023 74 107 2.0 8.0 0.00 0.00 0.00 82 1020.5
20210922181530 74 174 2.0 11.0 0.00 0.00 0.00 82 1020.5